Time;durP1;ratioP1;P1;durP2;ratioP2;P2;SDS_P1;SDS_P2;PMS_P1;PMS_P2;Temp;Humidity;BMP_temperature;BMP_pressure;BME280_temperature;BME280_humidity;BME280_pressure;Samples;Min_cycle;Max_cycle;Signal;HPM_P1;HPM_P2
2024/04/18 00:00:00;;;;;;;2.10;1.40;;;;;;;6.18;58.49;99536.03;11296698;26;20529;-60
2024/04/18 00:05:14;;;;;;;3.03;1.67;;;;;;;6.26;58.30;99533.91;11328148;26;20022;-59
2024/04/18 00:10:17;;;;;;;1.90;1.40;;;;;;;6.17;58.39;99531.72;11297040;26;20013;-60
2024/04/18 00:15:23;;;;;;;2.50;1.45;;;;;;;6.16;58.56;99534.41;11327396;26;20066;-59
2024/04/18 00:20:32;;;;;;;1.98;1.30;;;;;;;6.00;58.22;99536.03;11327262;26;20002;-60
2024/04/18 00:25:52;;;;;;;4.07;1.88;;;;;;;5.98;58.45;99538.69;11296018;26;20012;-59
2024/04/18 00:30:57;;;;;;;3.03;1.50;;;;;;;5.97;58.46;99534.44;11327591;26;20016;-59
2024/04/18 00:35:59;;;;;;;2.35;1.58;;;;;;;6.10;58.40;99542.47;11324298;26;19998;-60
2024/04/18 00:41:21;;;;;;;3.05;1.60;;;;;;;6.17;58.34;99534.31;11327391;26;20454;-59
2024/04/18 00:46:32;;;;;;;2.50;1.60;;;;;;;6.27;58.42;99535.59;11324584;26;20002;-60
2024/04/18 00:51:35;;;;;;;3.10;1.83;;;;;;;6.31;58.48;99547.50;11323839;26;19998;-60
2024/04/18 00:56:39;;;;;;;2.70;1.40;;;;;;;6.20;58.40;99547.16;11325842;26;19999;-60
2024/04/18 01:02:00;;;;;;;2.60;1.55;;;;;;;6.15;58.04;99548.28;11325811;26;20021;-60
2024/04/18 01:07:12;;;;;;;3.00;1.85;;;;;;;6.11;58.29;99544.16;11326873;26;20013;-60
2024/04/18 01:12:20;;;;;;;3.08;1.70;;;;;;;6.10;58.10;99553.69;11326313;26;20579;-60
2024/04/18 01:17:23;;;;;;;3.30;1.98;;;;;;;6.13;58.27;99556.16;11325493;26;19998;-59
2024/04/18 01:22:26;;;;;;;3.45;2.15;;;;;;;6.25;58.23;99553.00;11325363;26;20006;-59
2024/04/18 01:27:29;;;;;;;5.80;2.00;;;;;;;6.22;57.91;99558.31;11327547;26;20017;-59
2024/04/18 01:32:35;;;;;;;3.47;1.88;;;;;;;6.29;58.04;99570.13;11326090;26;20013;-59
2024/04/18 01:37:38;;;;;;;3.17;1.90;;;;;;;6.18;57.98;99572.38;11325109;26;20041;-59
2024/04/18 01:42:48;;;;;;;3.13;2.00;;;;;;;6.08;58.09;99572.88;11326813;26;20009;-59
2024/04/18 01:47:59;;;;;;;5.00;2.38;;;;;;;6.07;58.16;99579.81;11326001;26;20861;-60
2024/04/18 01:53:14;;;;;;;4.38;2.47;;;;;;;6.09;58.14;99579.72;11325508;26;20078;-60
2024/04/18 01:58:17;;;;;;;4.15;2.20;;;;;;;5.96;58.28;99583.81;11323997;26;19998;-60
2024/04/18 02:03:27;;;;;;;4.33;2.40;;;;;;;5.93;58.52;99595.19;11325164;26;20025;-60
2024/04/18 02:08:47;;;;;;;4.82;2.33;;;;;;;5.93;58.47;99597.78;11324488;26;20017;-60
2024/04/18 02:14:13;;;;;;;3.70;2.38;;;;;;;5.82;58.96;99601.78;11319111;26;20006;-59
2024/04/18 02:19:15;;;;;;;5.43;2.60;;;;;;;5.79;58.85;99600.16;11327787;26;20002;-60
2024/04/18 02:24:41;;;;;;;5.25;2.58;;;;;;;5.91;58.69;99604.78;11331080;26;20017;-60
2024/04/18 02:29:43;;;;;;;4.90;2.40;;;;;;;6.09;58.57;99608.28;11330934;26;19994;-60
2024/04/18 02:35:06;;;;;;;4.28;2.28;;;;;;;6.15;58.31;99614.03;11330827;26;20002;-61
2024/04/18 02:40:09;;;;;;;6.68;2.58;;;;;;;6.11;58.30;99609.91;11331200;26;20458;-60
2024/04/18 02:45:31;;;;;;;4.38;2.42;;;;;;;6.04;58.31;99618.06;11328392;26;20055;-60
2024/04/18 02:50:53;;;;;;;4.43;2.70;;;;;;;6.02;58.21;99618.09;11329708;26;20032;-60
2024/04/18 02:55:56;;;;;;;5.57;2.40;;;;;;;5.99;58.50;99617.41;11330668;26;19998;-60
2024/04/18 03:01:07;;;;;;;5.35;2.95;;;;;;;6.12;58.47;99619.34;11328399;26;20096;-60
2024/04/18 03:06:13;;;;;;;7.38;2.53;;;;;;;6.25;58.41;99632.66;11329973;26;20079;-59
2024/04/18 03:11:15;;;;;;;4.35;2.55;;;;;;;6.29;58.32;99624.66;11330287;26;20408;-60
2024/04/18 03:16:37;;;;;;;4.63;2.50;;;;;;;6.33;58.56;99628.78;11328386;26;20021;-60
2024/04/18 03:21:54;;;;;;;7.15;2.92;;;;;;;6.28;58.55;99627.31;11329147;26;20010;-60
2024/04/18 03:26:57;;;;;;;5.50;2.90;;;;;;;6.32;58.58;99634.06;11329526;26;20010;-60
2024/04/18 03:32:02;;;;;;;4.80;2.88;;;;;;;6.37;58.68;99628.66;11326562;26;20013;-60
2024/04/18 03:37:20;;;;;;;5.70;2.97;;;;;;;6.34;58.52;99629.63;11323373;26;20434;-60
2024/04/18 03:42:23;;;;;;;5.22;2.90;;;;;;;6.31;58.70;99642.75;11297154;26;19998;-60
2024/04/18 03:47:26;;;;;;;6.93;3.15;;;;;;;6.31;58.82;99645.34;11329654;26;20010;-60
2024/04/18 03:52:44;;;;;;;5.22;2.53;;;;;;;6.27;58.59;99652.44;11328769;26;20022;-59
2024/04/18 03:58:04;;;;;;;;;;;;;;;6.19;59.32;99662.31;11327273;26;19998;-60
2024/04/18 04:03:22;;;;;;;4.72;3.03;;;;;;;6.25;58.76;99667.25;11329594;26;19924;-59
2024/04/18 04:08:25;;;;;;;4.88;2.88;;;;;;;6.28;58.95;99671.47;11328984;26;20017;-60
2024/04/18 04:13:46;;;;;;;;;;;;;;;6.14;59.94;99672.06;11268519;26;20199;-60
2024/04/18 04:18:54;;;;;;;4.20;2.40;;;;;;;6.31;58.99;99671.31;11328957;26;19924;-60
2024/04/18 04:24:16;;;;;;;5.07;2.95;;;;;;;6.39;58.76;99679.59;11325643;26;20055;-59
2024/04/18 04:29:25;;;;;;;4.68;2.78;;;;;;;6.41;59.13;99689.94;11298449;26;20006;-60
2024/04/18 04:34:28;;;;;;;6.10;2.88;;;;;;;6.40;58.86;99696.03;11321662;26;20029;-59
2024/04/18 04:39:30;;;;;;;5.47;3.00;;;;;;;6.38;59.07;99705.66;11263823;26;20008;-60
2024/04/18 04:44:53;;;;;;;7.07;3.55;;;;;;;6.34;59.12;99718.78;11328141;26;19998;-59
2024/04/18 04:50:06;;;;;;;7.80;4.00;;;;;;;6.26;58.94;99720.91;11318761;26;20025;-60
2024/04/18 04:55:13;;;;;;;7.75;4.53;;;;;;;6.21;58.94;99727.16;11327887;26;20018;-60
2024/04/18 05:00:15;;;;;;;8.77;4.25;;;;;;;6.29;58.97;99740.66;11327650;26;20006;-60
2024/04/18 05:05:31;;;;;;;7.15;3.65;;;;;;;6.21;58.69;99751.38;11325766;26;20059;-60
2024/04/18 05:10:43;;;;;;;7.70;4.30;;;;;;;6.40;58.65;99750.56;11324569;26;20006;-60
2024/04/18 05:15:46;;;;;;;8.00;3.85;;;;;;;6.55;58.89;99749.88;11326028;26;20599;-59
2024/04/18 05:21:04;;;;;;;8.73;3.88;;;;;;;6.60;58.49;99755.69;11323731;26;20002;-60
2024/04/18 05:26:32;;;;;;;8.30;4.22;;;;;;;6.74;58.57;99768.88;11326294;26;20010;-60
2024/04/18 05:31:35;;;;;;;8.25;3.55;;;;;;;6.92;58.14;99770.63;11326841;26;20107;-59
2024/04/18 05:36:44;;;;;;;10.00;4.97;;;;;;;7.04;57.82;99785.66;11293747;26;20009;-59
2024/04/18 05:41:47;;;;;;;7.97;4.05;;;;;;;7.08;57.68;99784.59;11320863;26;19998;-60
2024/04/18 05:47:05;;;;;;;8.68;4.30;;;;;;;6.85;58.10;99797.84;11321331;26;20535;-60
2024/04/18 05:52:08;;;;;;;8.77;4.53;;;;;;;6.98;57.86;99810.16;11317370;26;20009;-59
2024/04/18 05:57:14;;;;;;;10.38;5.30;;;;;;;7.22;57.75;99808.19;11316226;26;20002;-60
2024/04/18 06:02:28;;;;;;;8.25;4.72;;;;;;;7.32;57.38;99814.63;11311729;26;20003;-59
2024/04/18 06:07:33;;;;;;;9.70;4.90;;;;;;;7.53;57.08;99813.56;11319177;26;20017;-59
2024/04/18 06:12:35;;;;;;;7.45;3.88;;;;;;;7.63;57.15;99825.22;11313635;26;20461;-59
2024/04/18 06:17:38;;;;;;;11.65;5.10;;;;;;;7.94;56.44;99833.19;11316286;26;20469;-60
2024/04/18 06:22:41;;;;;;;9.23;4.82;;;;;;;8.39;55.56;99830.00;11317414;26;20327;-60
2024/04/18 06:27:59;;;;;;;8.60;4.88;;;;;;;9.14;54.64;99839.84;11317287;26;20046;-59
2024/04/18 06:33:02;;;;;;;7.10;3.50;;;;;;;9.77;53.79;99840.63;11316997;26;20307;-60
2024/04/18 06:38:06;;;;;;;11.93;4.20;;;;;;;9.88;52.92;99848.66;11316260;26;21062;-60
2024/04/18 06:43:09;;;;;;;8.35;4.30;;;;;;;9.66;53.07;99849.09;11315997;26;19998;-59
2024/04/18 06:48:11;;;;;;;8.02;4.15;;;;;;;9.75;52.94;99853.75;11314717;26;20004;-60
2024/04/18 06:53:14;;;;;;;7.18;3.63;;;;;;;9.42;52.47;99873.94;11314114;26;20410;-60
2024/04/18 06:58:17;;;;;;;8.90;3.83;;;;;;;9.55;52.35;99867.06;11312694;26;20466;-60
2024/04/18 07:03:20;;;;;;;8.45;4.82;;;;;;;9.72;51.32;99872.22;11317749;26;20020;-60
2024/04/18 07:08:25;;;;;;;5.78;3.40;;;;;;;10.20;50.96;99876.38;11323658;26;20082;-60
2024/04/18 07:13:32;;;;;;;6.30;3.47;;;;;;;10.17;50.40;99873.94;11320638;26;20473;-60
2024/04/18 07:19:02;;;;;;;7.60;4.07;;;;;;;10.09;49.98;99881.41;11317660;26;20002;-60
2024/04/18 07:24:26;;;;;;;6.40;3.22;;;;;;;9.92;50.91;99881.53;11321757;26;20017;-60
2024/04/18 07:29:29;;;;;;;7.65;4.07;;;;;;;9.69;50.80;99901.13;11323745;26;20016;-60
2024/04/18 07:34:31;;;;;;;6.13;3.38;;;;;;;9.35;51.31;99902.13;11321588;26;20274;-60
2024/04/18 07:39:34;;;;;;;6.05;3.10;;;;;;;8.90;51.67;99906.38;11319433;26;20394;-60
2024/04/18 07:44:36;;;;;;;7.18;3.33;;;;;;;8.72;52.04;99924.69;11322019;26;20005;-60
2024/04/18 07:49:39;;;;;;;7.50;3.15;;;;;;;9.01;51.96;99925.78;11290261;26;20012;-60
2024/04/18 07:54:46;;;;;;;4.90;2.92;;;;;;;9.77;50.73;99932.88;11319261;26;20421;-60
2024/04/18 07:59:49;;;;;;;6.05;2.92;;;;;;;10.46;49.74;99926.19;11320607;26;20026;-60
2024/04/18 08:04:53;;;;;;;5.65;3.03;;;;;;;11.55;48.53;99921.19;11321155;26;20017;-60
2024/04/18 08:10:03;;;;;;;5.30;2.80;;;;;;;11.40;47.76;99935.28;11321330;26;20017;-60
2024/04/18 08:15:12;;;;;;;5.10;2.72;;;;;;;10.95;47.84;99949.41;11320740;26;20017;-60
2024/04/18 08:20:21;;;;;;;5.20;2.85;;;;;;;10.88;48.14;99948.09;11320926;26;20024;-60
2024/04/18 08:25:24;;;;;;;3.92;2.25;;;;;;;11.03;48.05;99957.63;11321147;26;20399;-60
2024/04/18 08:30:27;;;;;;;5.00;2.50;;;;;;;11.05;47.98;99961.84;11320632;26;20115;-60
2024/04/18 08:35:29;;;;;;;6.35;2.80;;;;;;;10.62;47.86;99974.97;11322897;26;20021;-60
2024/04/18 08:40:32;;;;;;;4.25;2.30;;;;;;;10.47;48.09;99979.31;11321015;26;20034;-60
2024/04/18 08:45:36;;;;;;;3.95;2.03;;;;;;;10.97;47.47;99984.19;11320115;26;20089;-60
2024/04/18 08:50:41;;;;;;;4.25;2.30;;;;;;;12.34;45.94;99967.53;11319659;26;20002;-60
2024/04/18 08:55:51;;;;;;;3.63;1.95;;;;;;;12.94;43.97;99976.50;11319190;26;20009;-60
2024/04/18 09:00:55;;;;;;;4.43;2.20;;;;;;;12.27;45.12;99974.09;11322905;26;20474;-60
2024/04/18 09:05:57;;;;;;;3.13;1.88;;;;;;;12.15;45.20;99980.97;11321126;26;20038;-60
2024/04/18 09:11:00;;;;;;;3.55;1.70;;;;;;;12.57;44.37;99982.59;11321958;26;20021;-60
2024/04/18 09:16:03;;;;;;;2.83;1.63;;;;;;;13.13;43.75;99996.25;11314910;26;20042;-60
2024/04/18 09:21:10;;;;;;;3.38;1.75;;;;;;;13.47;42.14;99993.84;11256820;26;20801;-61
2024/04/18 09:26:13;;;;;;;4.00;1.92;;;;;;;13.56;41.76;99989.69;11289154;26;20075;-60
2024/04/18 09:31:18;;;;;;;2.25;1.60;;;;;;;14.70;39.99;99992.66;11307101;26;20014;-60
2024/04/18 09:36:39;;;;;;;3.00;1.60;;;;;;;14.56;40.85;99993.69;11281815;26;20017;-59
2024/04/18 09:41:44;;;;;;;3.28;1.55;;;;;;;13.39;41.02;100006.59;11318592;26;20021;-59
2024/04/18 09:46:50;;;;;;;2.40;1.40;;;;;;;12.73;42.42;100019.97;11319934;26;20002;-59
2024/04/18 09:51:55;;;;;;;3.28;1.80;;;;;;;12.42;42.72;100024.72;11323730;26;20013;-59
2024/04/18 09:56:59;;;;;;;2.17;1.40;;;;;;;12.11;42.41;100021.44;11321813;26;20016;-59
2024/04/18 10:02:03;;;;;;;2.40;1.50;;;;;;;12.14;43.02;100026.50;11321101;26;19994;-59
2024/04/18 10:07:13;;;;;;;2.80;1.60;;;;;;;12.09;42.47;100023.31;11324391;26;20002;-59
2024/04/18 10:12:18;;;;;;;1.85;1.30;;;;;;;11.80;43.13;100032.22;11322964;26;20002;-59
2024/04/18 10:17:25;;;;;;;2.65;1.63;;;;;;;11.83;41.88;100039.00;11321332;26;20204;-59
2024/04/18 10:22:32;;;;;;;3.65;1.70;;;;;;;11.90;42.73;100043.78;11321121;26;20025;-59
2024/04/18 10:27:48;;;;;;;;;;;;;;;11.89;42.38;100046.50;11324464;26;20002;-59
2024/04/18 10:32:52;;;;;;;2.30;1.35;;;;;;;12.75;42.43;100033.81;11383588;25;19936;-59
2024/04/18 10:37:57;;;;;;;3.35;1.85;;;;;;;13.03;41.84;100037.22;11326243;26;19998;-60
2024/04/18 10:43:16;;;;;;;3.60;1.73;;;;;;;13.21;39.26;100033.34;11297837;26;20002;-60
2024/04/18 10:48:22;;;;;;;3.33;2.17;;;;;;;13.25;39.45;100034.81;11332406;26;20334;-61
2024/04/18 10:53:26;;;;;;;2.53;1.42;;;;;;;14.17;39.58;100026.41;11332394;26;20006;-60
2024/04/18 10:58:28;;;;;;;2.53;1.35;;;;;;;14.81;37.14;100019.00;11331132;26;20033;-60
2024/04/18 11:03:32;;;;;;;2.10;1.40;;;;;;;14.29;37.37;100022.88;11329761;26;20009;-60
2024/04/18 11:08:35;;;;;;;3.53;1.63;;;;;;;13.72;38.86;100033.16;11330622;26;20038;-60
2024/04/18 11:13:37;;;;;;;2.28;1.50;;;;;;;13.24;39.92;100033.09;11330251;26;20059;-60
2024/04/18 11:18:40;;;;;;;2.17;1.50;;;;;;;13.25;40.52;100040.88;11330107;26;19998;-61
2024/04/18 11:23:43;;;;;;;2.10;1.33;;;;;;;13.56;39.82;100031.72;11327874;26;20018;-61
2024/04/18 11:28:56;;;;;;;3.10;1.58;;;;;;;13.81;39.39;100034.31;11324973;26;20013;-61
2024/04/18 11:33:59;;;;;;;1.98;1.25;;;;;;;13.86;39.50;100044.50;11325611;26;20027;-61
2024/04/18 11:39:01;;;;;;;2.78;1.50;;;;;;;14.38;39.43;100032.72;11324930;26;20041;-61
2024/04/18 11:44:05;;;;;;;2.70;1.58;;;;;;;14.43;39.06;100029.75;11318467;26;20007;-61
2024/04/18 11:49:08;;;;;;;2.42;1.40;;;;;;;14.72;39.29;100030.22;11322465;26;20339;-61
2024/04/18 11:54:11;;;;;;;2.58;1.60;;;;;;;14.76;38.96;100031.69;11322713;26;20002;-61
2024/04/18 11:59:16;;;;;;;2.10;1.20;;;;;;;14.58;37.88;100029.47;11321101;26;19998;-61
2024/04/18 12:04:19;;;;;;;3.08;1.40;;;;;;;14.16;40.38;100043.13;11324360;26;20127;-61
2024/04/18 12:09:22;;;;;;;2.88;1.42;;;;;;;13.72;41.02;100038.44;11327710;26;20240;-61
2024/04/18 12:14:25;;;;;;;2.47;1.30;;;;;;;13.37;42.04;100039.22;11328446;26;20074;-61
2024/04/18 12:19:28;;;;;;;2.63;1.40;;;;;;;13.03;42.00;100039.84;11297366;26;20010;-61
2024/04/18 12:24:30;;;;;;;2.42;1.25;;;;;;;13.49;42.43;100041.84;11328041;26;20009;-61
2024/04/18 12:29:46;;;;;;;3.35;1.55;;;;;;;13.64;41.29;100032.03;11329037;26;20002;-61
2024/04/18 12:34:49;;;;;;;3.42;1.70;;;;;;;13.92;41.05;100026.50;11326999;26;20092;-61
2024/04/18 12:39:52;;;;;;;3.60;1.52;;;;;;;14.51;40.56;100020.34;11329423;26;20021;-61
2024/04/18 12:45:01;;;;;;;4.93;1.65;;;;;;;14.80;39.90;100023.44;11326209;26;20020;-61
2024/04/18 12:50:04;;;;;;;2.50;1.50;;;;;;;14.24;40.14;100035.53;11327514;26;20013;-61
2024/04/18 12:55:07;;;;;;;2.92;1.55;;;;;;;14.01;40.19;100035.50;11328064;26;20018;-61
2024/04/18 13:00:12;;;;;;;3.22;1.55;;;;;;;13.76;39.44;100033.78;11323496;26;20571;-61
2024/04/18 13:05:33;;;;;;;5.15;1.35;;;;;;;13.61;39.68;100032.25;11320816;26;20005;-61
2024/04/18 13:10:39;;;;;;;3.30;1.60;;;;;;;13.52;39.50;100039.00;11320962;26;20335;-61
2024/04/18 13:15:57;;;;;;;2.05;1.35;;;;;;;13.63;39.19;100049.59;11319884;26;20002;-61
2024/04/18 13:21:04;;;;;;;1.90;1.20;;;;;;;14.07;37.90;100035.06;11322096;26;20013;-61
2024/04/18 13:26:07;;;;;;;4.97;1.50;;;;;;;14.22;37.49;100039.22;11320969;26;19998;-61
2024/04/18 13:31:13;;;;;;;2.83;1.35;;;;;;;13.68;38.42;100044.00;11320671;26;20020;-61
2024/04/18 13:36:22;;;;;;;2.10;1.20;;;;;;;13.32;38.25;100052.66;11321138;26;20006;-62
2024/04/18 13:41:36;;;;;;;2.28;1.30;;;;;;;13.53;37.72;100042.47;11321548;26;20010;-62
2024/04/18 13:46:52;;;;;;;1.67;0.95;;;;;;;13.59;37.90;100048.16;11320288;26;20058;-61
2024/04/18 13:52:25;;;;;;;3.10;1.48;;;;;;;14.21;37.13;100035.75;11310658;26;20111;-60
2024/04/18 13:57:40;;;;;;;1.52;1.10;;;;;;;14.59;36.91;100031.16;11320345;26;20006;-61
2024/04/18 14:02:56;;;;;;;1.63;1.25;;;;;;;14.06;37.03;100036.88;11324552;26;20006;-61
2024/04/18 14:08:01;;;;;;;1.80;1.15;;;;;;;14.21;37.14;100040.16;11325021;26;20078;-61
2024/04/18 14:13:04;;;;;;;11.02;2.05;;;;;;;14.05;37.34;100048.31;11325094;26;20002;-61
2024/04/18 14:24:03;;;;;;;1.75;1.00;;;;;;;13.86;36.31;100037.44;11332567;26;20666;-60
2024/04/18 14:29:06;;;;;;;2.15;1.27;;;;;;;13.96;35.99;100051.63;11330091;26;20353;-60
2024/04/18 14:34:28;;;;;;;1.40;1.10;;;;;;;13.97;35.88;100042.78;11331583;26;20018;-60
2024/04/18 14:39:31;;;;;;;1.83;1.20;;;;;;;13.89;35.72;100047.75;11331145;26;20541;-60
2024/04/18 14:44:40;;;;;;;1.65;1.20;;;;;;;14.09;36.49;100047.16;11319114;26;20468;-61
2024/04/18 14:49:50;;;;;;;2.65;1.70;;;;;;;14.15;35.31;100041.44;11330927;26;20021;-60
2024/04/18 14:55:08;;;;;;;2.72;1.05;;;;;;;14.00;36.09;100031.22;11329758;26;20928;-61
2024/04/18 15:00:11;;;;;;;0.90;0.80;;;;;;;13.88;36.58;100032.09;11328649;26;20006;-61
2024/04/18 15:05:14;;;;;;;1.73;1.02;;;;;;;13.88;36.60;100039.97;11321668;26;19998;-61
2024/04/18 15:10:36;;;;;;;0.98;0.88;;;;;;;13.97;36.20;100027.00;11317601;26;20081;-61
2024/04/18 15:15:44;;;;;;;1.77;0.90;;;;;;;14.07;36.66;100025.38;11319247;26;20009;-60
2024/04/18 15:20:51;;;;;;;1.45;1.00;;;;;;;13.86;36.99;100032.19;11322139;26;20009;-62
2024/04/18 15:25:54;;;;;;;3.17;1.00;;;;;;;13.50;36.58;100047.94;11322347;26;19998;-61
2024/04/18 15:31:01;;;;;;;1.40;0.80;;;;;;;13.46;36.02;100046.47;11319934;26;20010;-61
2024/04/18 15:36:26;;;;;;;2.42;0.98;;;;;;;13.58;36.85;100046.44;11320063;26;20073;-62
2024/04/18 15:41:35;;;;;;;1.77;0.82;;;;;;;13.40;36.28;100046.84;11322513;26;20451;-61
2024/04/18 15:46:48;;;;;;;1.23;0.95;;;;;;;13.35;36.65;100049.78;11315284;26;20444;-61
2024/04/18 15:52:14;;;;;;;1.20;0.85;;;;;;;13.26;36.83;100046.97;11321692;26;20055;-62
2024/04/18 15:57:22;;;;;;;1.10;0.95;;;;;;;13.31;36.99;100058.84;11322627;26;19998;-61
2024/04/18 16:02:46;;;;;;;0.80;0.60;;;;;;;13.28;36.65;100061.69;11321923;26;20016;-61
2024/04/18 16:08:16;;;;;;;3.55;1.00;;;;;;;13.40;36.36;100054.72;11320529;26;19994;-61
2024/04/18 16:13:19;;;;;;;8.45;1.90;;;;;;;13.11;36.38;100067.25;11319813;26;20490;-61
2024/04/18 16:18:26;;;;;;;4.05;1.05;;;;;;;12.79;36.55;100077.28;11323285;26;19998;-62
2024/04/18 16:23:34;;;;;;;0.93;0.85;;;;;;;12.81;36.99;100078.03;11320998;26;20002;-62
2024/04/18 16:28:38;;;;;;;2.03;0.90;;;;;;;13.01;36.65;100075.84;11322636;26;20454;-62
2024/04/18 16:33:42;;;;;;;1.95;0.90;;;;;;;12.78;36.16;100080.03;11320003;26;20017;-62
2024/04/18 16:38:54;;;;;;;1.88;1.05;;;;;;;12.69;36.03;100083.25;11317860;26;20633;-62
2024/04/18 16:43:58;;;;;;;2.15;1.02;;;;;;;12.69;35.84;100080.63;11321962;26;20017;-61
2024/04/18 16:49:03;;;;;;;1.80;1.10;;;;;;;12.39;34.53;100080.00;11318281;26;19996;-62
2024/04/18 16:54:08;;;;;;;1.58;1.00;;;;;;;11.90;36.01;100084.88;11318525;26;20002;-61
2024/04/18 16:59:31;;;;;;;1.15;0.80;;;;;;;11.49;35.95;100090.06;11311003;26;20013;-62
2024/04/18 17:04:41;;;;;;;1.17;0.70;;;;;;;11.31;36.20;100091.16;11319664;26;21270;-62
2024/04/18 17:09:50;;;;;;;1.67;0.90;;;;;;;11.22;36.60;100102.19;11314288;26;19998;-61
2024/04/18 17:14:56;;;;;;;0.93;0.70;;;;;;;11.16;36.61;100097.31;11319676;26;21184;-62
2024/04/18 17:20:03;;;;;;;0.73;0.63;;;;;;;11.26;36.45;100107.16;11320391;26;20658;-61
2024/04/18 17:25:15;;;;;;;1.33;0.70;;;;;;;11.03;36.69;100112.84;11320478;26;20429;-61
2024/04/18 17:30:20;;;;;;;1.02;0.70;;;;;;;10.75;37.59;100110.16;11319218;26;20074;-61
2024/04/18 17:35:25;;;;;;;1.08;0.70;;;;;;;10.65;37.44;100116.84;11320762;26;20091;-62
2024/04/18 17:40:51;;;;;;;1.50;0.93;;;;;;;10.55;37.76;100115.69;11315491;26;19998;-62
2024/04/18 17:45:59;;;;;;;1.42;0.82;;;;;;;10.41;38.18;100124.31;11315896;26;20473;-62
2024/04/18 17:51:23;;;;;;;2.03;0.80;;;;;;;10.35;39.09;100135.13;11318121;26;20432;-62
2024/04/18 17:56:29;;;;;;;0.68;0.68;;;;;;;10.30;39.33;100136.28;11317670;26;20021;-61
2024/04/18 18:01:34;;;;;;;0.75;0.75;;;;;;;10.20;39.32;100140.34;11316941;26;20002;-61
2024/04/18 18:06:52;;;;;;;0.77;0.68;;;;;;;10.07;39.94;100155.88;11317786;26;20013;-61
2024/04/18 18:11:58;;;;;;;0.63;0.60;;;;;;;9.96;39.81;100152.13;11314732;26;20006;-61
2024/04/18 18:17:08;;;;;;;0.70;0.50;;;;;;;9.92;40.30;100151.44;11317398;26;20010;-62
2024/04/18 18:22:11;;;;;;;0.85;0.80;;;;;;;9.85;40.78;100159.72;11319855;26;20446;-61
2024/04/18 18:27:15;;;;;;;1.58;0.80;;;;;;;9.77;41.41;100167.09;11291121;26;20486;-61
2024/04/18 18:32:21;;;;;;;2.83;1.50;;;;;;;9.70;41.71;100165.72;11318365;26;20049;-62
2024/04/18 18:37:27;;;;;;;3.47;1.60;;;;;;;9.67;42.25;100165.91;11288048;26;20391;-61
2024/04/18 18:42:52;;;;;;;1.45;0.93;;;;;;;9.57;42.62;100162.88;11317855;26;20017;-62
2024/04/18 18:47:59;;;;;;;1.60;0.90;;;;;;;9.50;43.23;100159.72;11318270;26;20010;-62
2024/04/18 18:53:05;;;;;;;2.70;1.27;;;;;;;9.42;42.94;100169.72;11313909;26;20021;-62
2024/04/18 18:58:11;;;;;;;3.35;2.05;;;;;;;9.35;43.54;100157.91;11314766;26;20002;-62
2024/04/18 19:03:16;;;;;;;3.72;1.35;;;;;;;9.30;43.44;100162.50;11322787;26;20009;-62
2024/04/18 19:08:21;;;;;;;1.92;1.02;;;;;;;9.25;44.31;100168.91;11294339;26;20078;-62
2024/04/18 19:13:29;;;;;;;3.60;1.42;;;;;;;9.09;45.30;100167.97;11325038;26;20013;-62
2024/04/18 19:18:38;;;;;;;4.38;1.50;;;;;;;8.85;45.99;100160.44;11295013;26;20107;-62
2024/04/18 19:23:44;;;;;;;2.28;1.23;;;;;;;8.70;46.63;100162.97;11322551;26;20014;-62
2024/04/18 19:28:50;;;;;;;2.17;1.27;;;;;;;8.57;47.06;100165.31;11322629;26;20002;-62
2024/04/18 19:33:54;;;;;;;2.13;1.15;;;;;;;8.38;47.41;100159.28;11323970;26;20923;-62
2024/04/18 19:38:56;;;;;;;2.40;1.48;;;;;;;8.29;47.86;100159.72;11317400;26;20017;-62
2024/04/18 19:43:59;;;;;;;2.40;1.40;;;;;;;8.12;47.91;100156.22;11317315;26;20006;-62
2024/04/18 19:49:02;;;;;;;4.90;1.40;;;;;;;8.07;48.60;100158.13;11316319;26;20141;-62
2024/04/18 19:54:26;;;;;;;2.47;1.33;;;;;;;7.94;48.98;100157.84;11318794;26;20017;-62
2024/04/18 19:59:29;;;;;;;2.45;1.30;;;;;;;7.87;49.55;100164.25;11320963;26;20029;-62
2024/04/18 20:04:35;;;;;;;1.90;1.25;;;;;;;7.86;49.57;100162.56;11286128;26;20014;-63
2024/04/18 20:09:38;;;;;;;1.95;1.17;;;;;;;7.81;50.19;100152.34;11318024;26;20133;-62
2024/04/18 20:14:40;;;;;;;3.30;1.35;;;;;;;7.75;50.51;100155.22;11308842;26;20002;-62
2024/04/18 20:19:43;;;;;;;2.55;1.30;;;;;;;7.69;50.75;100147.69;11319910;26;20013;-62
2024/04/18 20:24:45;;;;;;;1.95;1.20;;;;;;;7.71;50.06;100153.66;11320495;26;20075;-62
2024/04/18 20:30:08;;;;;;;2.50;1.40;;;;;;;7.78;49.78;100146.44;11319524;26;20010;-62
2024/04/18 20:35:34;;;;;;;1.60;1.08;;;;;;;7.79;50.46;100142.94;11320755;26;20002;-62
2024/04/18 20:40:36;;;;;;;2.58;1.50;;;;;;;7.72;51.04;100144.94;11318251;26;20010;-62
2024/04/18 20:45:39;;;;;;;1.58;1.30;;;;;;;7.70;51.13;100149.38;11288825;26;19998;-62
2024/04/18 20:50:42;;;;;;;2.85;1.30;;;;;;;7.74;51.47;100153.53;11289806;26;20002;-62
2024/04/18 20:55:44;;;;;;;1.73;1.20;;;;;;;7.73;51.41;100144.03;11320052;26;20006;-62
2024/04/18 21:00:47;;;;;;;2.42;1.00;;;;;;;7.62;51.58;100143.69;11318553;26;20017;-61
2024/04/18 21:05:50;;;;;;;1.83;1.05;;;;;;;7.50;51.93;100136.41;11320351;26;20458;-61
2024/04/18 21:10:52;;;;;;;1.73;1.20;;;;;;;7.36;52.05;100146.56;11285993;26;19998;-61
2024/04/18 21:16:01;;;;;;;2.00;1.10;;;;;;;7.33;52.19;100138.88;11319539;26;20006;-61
2024/04/18 21:21:04;;;;;;;1.02;0.88;;;;;;;7.34;51.85;100137.13;11313131;26;19998;-60
2024/04/18 21:26:06;;;;;;;2.75;1.10;;;;;;;7.36;51.39;100130.97;11320965;26;20017;-61
2024/04/18 21:31:09;;;;;;;1.52;1.17;;;;;;;7.30;51.31;100139.03;11318433;26;21182;-60
2024/04/18 21:36:12;;;;;;;3.42;1.08;;;;;;;7.42;50.98;100122.03;11317668;26;20014;-61
2024/04/18 21:41:15;;;;;;;3.40;1.10;;;;;;;7.34;51.44;100124.13;11317289;26;20021;-61
2024/04/18 21:46:18;;;;;;;1.27;0.98;;;;;;;7.37;51.20;100118.78;11313830;26;19998;-61
2024/04/18 21:51:22;;;;;;;2.70;1.20;;;;;;;7.51;51.03;100112.06;11328048;26;20002;-60
2024/04/18 21:56:25;;;;;;;1.02;0.90;;;;;;;7.46;50.92;100105.38;11326262;26;20011;-61
2024/04/18 22:01:28;;;;;;;1.23;0.60;;;;;;;7.47;50.84;100105.31;11325310;26;20017;-61
2024/04/18 22:06:33;;;;;;;1.35;1.15;;;;;;;7.44;50.63;100097.66;11315915;26;19998;-61
2024/04/18 22:11:36;;;;;;;3.25;1.20;;;;;;;7.40;50.76;100093.50;11317843;26;20002;-61
2024/04/18 22:16:42;;;;;;;1.30;1.00;;;;;;;7.36;50.86;100094.53;11323613;26;20338;-61
2024/04/18 22:21:46;;;;;;;1.77;1.20;;;;;;;7.36;50.75;100091.09;11325874;26;19998;-61
2024/04/18 22:26:50;;;;;;;2.58;1.10;;;;;;;7.33;50.91;100086.84;11323916;26;20052;-60
2024/04/18 22:31:53;;;;;;;2.88;0.88;;;;;;;7.25;51.20;100090.69;11353976;26;19999;-61
2024/04/18 22:36:58;;;;;;;4.03;1.30;;;;;;;7.24;51.16;100100.28;11331292;26;20014;-62
2024/04/18 22:42:01;;;;;;;1.33;1.05;;;;;;;7.26;51.52;100085.44;11331360;26;19998;-61
2024/04/18 22:47:05;;;;;;;1.73;1.10;;;;;;;7.32;51.35;100073.91;11329019;26;20003;-61
2024/04/18 22:52:08;;;;;;;2.10;1.30;;;;;;;7.31;51.19;100078.28;11332907;26;20017;-61
2024/04/18 22:57:11;;;;;;;1.92;1.10;;;;;;;7.35;51.02;100074.63;11328745;26;20014;-61
2024/04/18 23:02:14;;;;;;;1.83;1.10;;;;;;;7.45;51.44;100070.69;11332099;26;19998;-60
2024/04/18 23:07:16;;;;;;;2.58;1.23;;;;;;;7.36;51.57;100060.72;11332511;26;20006;-62
2024/04/18 23:12:19;;;;;;;1.15;1.05;;;;;;;7.39;51.52;100055.34;11330416;26;20009;-61
2024/04/18 23:17:22;;;;;;;1.10;1.00;;;;;;;7.39;51.37;100050.16;11330540;26;20066;-61
2024/04/18 23:22:25;;;;;;;2.45;1.55;;;;;;;7.23;51.57;100046.56;11310574;26;20013;-62
2024/04/18 23:27:28;;;;;;;1.65;1.05;;;;;;;7.16;51.78;100047.75;11327842;26;19994;-61
2024/04/18 23:32:31;;;;;;;3.55;1.52;;;;;;;7.07;51.84;100038.59;11329796;26;20804;-60
2024/04/18 23:37:34;;;;;;;1.40;1.02;;;;;;;7.03;51.54;100036.19;11329038;26;20087;-61
2024/04/18 23:42:36;;;;;;;1.10;0.90;;;;;;;6.98;52.09;100030.31;11325246;26;20512;-60
2024/04/18 23:47:39;;;;;;;1.30;0.88;;;;;;;6.86;52.28;100029.09;11329061;26;20044;-60
2024/04/18 23:52:42;;;;;;;2.92;1.08;;;;;;;6.78;52.20;100026.00;11322999;26;20014;-61
2024/04/18 23:57:45;;;;;;;0.90;0.90;;;;;;;6.80;52.42;100023.31;11328972;26;20002;-62
